Pendleton, OR (97801)

9:41 AM PDT en Septiembre 02, 2014 (GMT -0700)
Sun Ridge Estates | Change Station
CLOSE
Current Station
Estación meteorológica personal
Location: Pendleton, OR
Altura: 1210 ft
Estaciones meteorológicas cercanas
Aviso en curso: Fire Weather Warning

Alt 1210 ft 45.65 °N, 118.79 °W | Updated 9 minutes ago

Clear
Despejado
70.3 ° F
Sensación térmica 77 ° F
N
1.0
Viento Variable Viento desde OSO
Gusts 7.0 mph

Hoy
Alta -- | Baja -- ° F
--% Posibilidad de precipitaciones
Ayer
Alta -- | Baja -- ° F
Precip. -- pul
6:17 AM 7:30 PM
Cuarto creciente, 53% visible
Presión 29.87 pul
Visibilidad 10.0 Millas
Nubes Despejado
Índice de calor 77 ° F
Punto de rocío 51 ° F
Humedad 51%
Precipitaciones 0.00 pul
Espesor de la nieve No disponible.
UV 3 de una escala de 12
Polen 5.80 de una escala de 12
Calidad del aire No disponible.
Flu Activity No disponible.
SPECI KPDT 021619Z 26013KT 10SM CLR 21/09 A2987

More Conditions Fewer Conditions

Presión 29.87 pul
Visibilidad 10.0 Millas
Nubes Despejado
Índice de calor 77 ° F
Punto de rocío 51 ° F
Humedad 51%
Precipitaciones 0.00 pul
Espesor de la nieve No disponible.
UV 3 de una escala de 12
Polen 5.80 de una escala de 12
Calidad del aire No disponible.
Flu Activity No disponible.
SPECI KPDT 021619Z 26013KT 10SM CLR 21/09 A2987

More Conditions Fewer Conditions

10-Day Weather Forecast

Almanac

Astronomía

Sep. 02, 2014 Salida Puesta
Hora real 6:17 AM PDT 7:30 PM PDT
Crepúsculo civil 5:47 AM PDT 8:01 PM PDT
Crepúsculo náutico 5:10 AM PDT 8:38 PM PDT
Crepúsculo astronómico 4:31 AM PDT 9:16 PM PDT
Luna 2:28 PM PDT Sin puesta de luna
Horas de luz 14h 14m
Horas de luz
13h 13m
Tomorrow will be 3m 7s shorter.
Cuarto creciente, 53% of the Moon is Illuminated
Hoy
Cuarto creciente
Sep 8
Luna llena
Sep 15
Cuarto menguante
Sep 24
Nueva
Oct 1
Cuarto creciente

Extremos de hoy

Máximos del estado Bajos del estado

Community

WunderPhotos

Upload Photos

1,749,716 ¡fotos cargadas!

Nearby

Grosos de nieve

Estación Profundido Altura
Bowman Springs 0 in 4580 ft
Lucky Strike 0 in 5050 ft
High Ridge 0 in 4980 ft
Madison Butte 0 in 5250 ft
Bourne 1 in 5800 ft

Actividad de terremotos

Ciudad Distance Mag. Tiempo y dato
No hay informes recientes de la actividad sísmica.
Magnitud mínima muestra es 2,5.

Temperaturas de aguas costeras

Lugar Temperatura
Sin partes meteorológicos de las estaciones

Estaciones meteorológicas cercanas